Time,TemperatureF,DewpointF,PressureIn,WindDirection,WindDirectionDegrees,WindSpeedMPH,WindSpeedGustMPH,Humidity,HourlyPrecipIn,Conditions,Clouds,dailyrainin,SoftwareType,DateUTC
2013-06-04 00:10:00,76.4,74.0,30.02,ESE,102,2.0,6.0,91,0.02,,,0.01,weatherlink.com 1.10,2013-06-04 04:10:00,
2013-06-04 00:25:00,76.0,73.0,30.02,ESE,102,1.0,3.0,91,0.03,,,0.02,weatherlink.com 1.10,2013-06-04 04:25:00,
2013-06-04 00:40:00,75.7,73.0,30.01,ESE,102,4.0,4.0,91,0.04,,,0.03,weatherlink.com 1.10,2013-06-04 04:40:00,
2013-06-04 00:55:00,75.4,73.0,30.01,ESE,102,3.0,4.0,91,0.04,,,0.03,weatherlink.com 1.10,2013-06-04 04:55:00,
2013-06-04 01:10:00,75.1,73.0,30.01,ESE,102,4.0,5.0,92,0.02,,,0.03,weatherlink.com 1.10,2013-06-04 05:10:00,
2013-06-04 01:25:00,74.8,72.0,30.03,SSE,158,22.0,29.0,91,0.00,,,0.03,weatherlink.com 1.10,2013-06-04 05:25:00,
2013-06-04 01:40:00,73.9,72.0,30.02,South,169,9.0,17.0,92,0.13,,,0.16,weatherlink.com 1.10,2013-06-04 05:40:00,
2013-06-04 01:55:00,73.8,72.0,30.02,South,175,9.0,16.0,93,0.18,,,0.21,weatherlink.com 1.10,2013-06-04 05:55:00,
2013-06-04 02:10:00,73.5,71.0,30.01,South,170,8.0,17.0,93,0.34,,,0.37,weatherlink.com 1.10,2013-06-04 06:10:00,
2013-06-04 02:25:00,73.1,71.0,30.01,South,175,0.0,6.0,93,0.41,,,0.44,weatherlink.com 1.10,2013-06-04 06:25:00,
2013-06-04 02:40:00,73.1,71.0,30.00,South,170,2.0,4.0,94,0.30,,,0.47,weatherlink.com 1.10,2013-06-04 06:40:00,
2013-06-04 02:56:00,73.2,71.0,29.99,SSE,168,1.0,4.0,94,0.27,,,0.49,weatherlink.com 1.10,2013-06-04 06:56:00,
2013-06-04 03:11:00,73.3,72.0,29.98,SSE,168,1.0,4.0,94,0.13,,,0.50,weatherlink.com 1.10,2013-06-04 07:11:00,
2013-06-04 03:26:00,73.3,72.0,29.98,SSE,168,1.0,3.0,94,0.06,,,0.50,weatherlink.com 1.10,2013-06-04 07:26:00,
2013-06-04 03:41:00,73.4,72.0,29.98,SSE,168,3.0,4.0,94,0.03,,,0.50,weatherlink.com 1.10,2013-06-04 07:41:00,
2013-06-04 03:56:00,73.4,72.0,29.97,SSE,168,1.0,3.0,94,0.00,,,0.50,weatherlink.com 1.10,2013-06-04 07:56:00,
2013-06-04 04:11:00,73.4,72.0,29.97,SSE,168,0.0,1.0,94,0.00,,,0.50,weatherlink.com 1.10,2013-06-04 08:11:00,
2013-06-04 04:26:00,73.4,72.0,29.96,SSE,168,0.0,0.0,94,0.00,,,0.50,weatherlink.com 1.10,2013-06-04 08:26:00,
2013-06-04 04:41:00,73.3,72.0,29.96,SSE,168,0.0,0.0,94,0.00,,,0.50,weatherlink.com 1.10,2013-06-04 08:41:00,
2013-06-04 04:56:00,73.4,72.0,29.96,SSE,168,3.0,3.0,94,0.01,,,0.51,weatherlink.com 1.10,2013-06-04 08:56:00,
2013-06-04 05:11:00,73.5,72.0,29.96,SSE,168,2.0,3.0,95,0.01,,,0.51,weatherlink.com 1.10,2013-06-04 09:11:00,
2013-06-04 05:26:00,73.7,72.0,29.96,SSE,168,2.0,4.0,95,0.01,,,0.51,weatherlink.com 1.10,2013-06-04 09:26:00,
2013-06-04 05:41:00,73.7,72.0,29.97,SSE,168,1.0,3.0,95,0.01,,,0.51,weatherlink.com 1.10,2013-06-04 09:41:00,
2013-06-04 05:56:00,73.7,72.0,29.98,SSE,168,0.0,2.0,95,0.00,,,0.51,weatherlink.com 1.10,2013-06-04 09:56:00,
2013-06-04 06:11:00,73.7,72.0,29.97,ESE,104,3.0,6.0,95,0.00,,,0.51,weatherlink.com 1.10,2013-06-04 10:11:00,
2013-06-04 06:26:00,73.7,72.0,29.98,ESE,104,2.0,5.0,95,0.00,,,0.51,weatherlink.com 1.10,2013-06-04 10:26:00,
2013-06-04 06:41:00,73.5,72.0,29.98,ESE,104,2.0,5.0,95,0.00,,,0.51,weatherlink.com 1.10,2013-06-04 10:41:00,
2013-06-04 06:56:00,73.5,72.0,29.98,ESE,104,3.0,6.0,95,0.01,,,0.52,weatherlink.com 1.10,2013-06-04 10:56:00,
2013-06-04 07:26:00,73.6,72.0,29.98,ENE,58,3.0,5.0,95,0.01,,,0.52,weatherlink.com 1.10,2013-06-04 11:26:00,
2013-06-04 07:41:00,73.9,72.0,29.98,ENE,58,1.0,6.0,95,0.01,,,0.52,weatherlink.com 1.10,2013-06-04 11:41:00,
2013-06-04 07:56:00,74.1,73.0,29.98,ENE,57,3.0,5.0,95,0.00,,,0.52,weatherlink.com 1.10,2013-06-04 11:56:00,
2013-06-04 08:11:00,74.2,73.0,29.99,ENE,57,3.0,6.0,95,0.00,,,0.52,weatherlink.com 1.10,2013-06-04 12:11:00,
2013-06-04 08:26:00,74.1,73.0,29.99,ENE,57,2.0,5.0,95,0.00,,,0.52,weatherlink.com 1.10,2013-06-04 12:26:00,
2013-06-04 08:41:00,73.9,72.0,30.00,ENE,57,1.0,6.0,95,0.00,,,0.52,weatherlink.com 1.10,2013-06-04 12:41:00,
2013-06-04 08:56:00,74.0,73.0,30.00,ENE,57,3.0,7.0,95,0.00,,,0.52,weatherlink.com 1.10,2013-06-04 12:56:00,
2013-06-04 09:11:00,74.3,73.0,30.01,ENE,57,5.0,7.0,95,0.00,,,0.52,weatherlink.com 1.10,2013-06-04 13:11:00,
2013-06-04 09:26:00,74.6,73.0,30.02,ENE,70,0.0,7.0,95,0.00,,,0.52,weatherlink.com 1.10,2013-06-04 13:26:00,
2013-06-04 09:41:00,74.8,73.0,30.02,ESE,107,5.0,7.0,95,0.00,,,0.52,weatherlink.com 1.10,2013-06-04 13:41:00,
2013-06-04 09:56:00,75.1,74.0,30.02,East,94,5.0,8.0,95,0.00,,,0.52,weatherlink.com 1.10,2013-06-04 13:56:00,
2013-06-04 10:11:00,75.3,74.0,30.03,SE,128,2.0,10.0,94,0.00,,,0.52,weatherlink.com 1.10,2013-06-04 14:11:00,
2013-06-04 10:26:00,75.5,74.0,30.03,ESE,123,4.0,8.0,94,0.00,,,0.52,weatherlink.com 1.10,2013-06-04 14:26:00,
2013-06-04 10:41:00,75.9,74.0,30.03,East,83,8.0,9.0,93,0.00,,,0.52,weatherlink.com 1.10,2013-06-04 14:41:00,
2013-06-04 10:56:00,76.7,75.0,30.03,East,87,4.0,8.0,93,0.00,,,0.52,weatherlink.com 1.10,2013-06-04 14:56:00,
2013-06-04 11:11:00,77.1,75.0,30.04,East,90,6.0,7.0,92,0.00,,,0.52,weatherlink.com 1.10,2013-06-04 15:11:00,
2013-06-04 11:26:00,77.6,75.0,30.04,East,85,5.0,7.0,92,0.00,,,0.52,weatherlink.com 1.10,2013-06-04 15:26:00,
2013-06-04 11:41:00,78.1,76.0,30.04,East,89,5.0,7.0,92,0.00,,,0.52,weatherlink.com 1.10,2013-06-04 15:41:00,
2013-06-04 11:56:00,78.7,76.0,30.04,East,87,2.0,10.0,92,0.01,,,0.53,weatherlink.com 1.10,2013-06-04 15:56:00,
2013-06-04 12:11:00,78.9,76.0,30.04,ENE,74,2.0,12.0,91,0.01,,,0.53,weatherlink.com 1.10,2013-06-04 16:11:00,
2013-06-04 12:26:00,78.7,76.0,30.04,East,89,4.0,8.0,91,0.01,,,0.53,weatherlink.com 1.10,2013-06-04 16:26:00,
2013-06-04 12:41:00,79.1,76.0,30.04,ESE,105,4.0,9.0,90,0.00,,,0.53,weatherlink.com 1.10,2013-06-04 16:41:00,
2013-06-04 12:56:00,79.2,76.0,30.03,ENE,77,1.0,9.0,90,0.00,,,0.53,weatherlink.com 1.10,2013-06-04 16:56:00,
2013-06-04 13:11:00,79.3,76.0,30.03,ESE,103,3.0,11.0,89,0.00,,,0.53,weatherlink.com 1.10,2013-06-04 17:11:00,
2013-06-04 13:26:00,79.7,77.0,30.02,East,91,3.0,10.0,90,0.00,,,0.53,weatherlink.com 1.10,2013-06-04 17:26:00,
2013-06-04 13:41:00,80.3,77.0,30.02,ESE,107,2.0,12.0,89,0.00,,,0.53,weatherlink.com 1.10,2013-06-04 17:41:00,
2013-06-04 13:56:00,80.9,77.0,30.02,East,81,0.0,10.0,88,0.00,,,0.53,weatherlink.com 1.10,2013-06-04 17:56:00,
2013-06-04 14:11:00,81.4,78.0,30.01,ENE,71,5.0,9.0,88,0.00,,,0.53,weatherlink.com 1.10,2013-06-04 18:11:00,
2013-06-04 14:26:00,81.2,77.0,30.00,East,81,2.0,6.0,87,0.00,,,0.53,weatherlink.com 1.10,2013-06-04 18:26:00,
2013-06-04 14:41:00,81.2,77.0,30.00,ENE,64,2.0,9.0,87,0.00,,,0.53,weatherlink.com 1.10,2013-06-04 18:41:00,
2013-06-04 14:56:00,81.1,77.0,30.00,East,81,5.0,8.0,87,0.00,,,0.53,weatherlink.com 1.10,2013-06-04 18:56:00,
2013-06-04 15:11:00,81.2,77.0,29.99,ENE,73,5.0,7.0,88,0.00,,,0.53,weatherlink.com 1.10,2013-06-04 19:11:00,
2013-06-04 15:26:00,81.3,78.0,29.99,ENE,74,3.0,6.0,89,0.00,,,0.53,weatherlink.com 1.10,2013-06-04 19:26:00,
2013-06-04 15:41:00,81.6,78.0,29.99,East,87,4.0,10.0,88,0.00,,,0.53,weatherlink.com 1.10,2013-06-04 19:41:00,
2013-06-04 15:56:00,81.8,78.0,29.98,ENE,77,3.0,9.0,88,0.00,,,0.53,weatherlink.com 1.10,2013-06-04 19:56:00,
2013-06-04 16:11:00,82.0,78.0,29.98,East,94,3.0,8.0,88,0.00,,,0.53,weatherlink.com 1.10,2013-06-04 20:11:00,
2013-06-04 16:27:00,82.1,78.0,29.98,NE,56,1.0,8.0,87,0.00,,,0.53,weatherlink.com 1.10,2013-06-04 20:27:00,
2013-06-04 16:42:00,82.3,78.0,29.98,NE,47,7.0,10.0,87,0.00,,,0.53,weatherlink.com 1.10,2013-06-04 20:42:00,
2013-06-04 16:57:00,82.3,78.0,29.97,East,79,8.0,11.0,87,0.00,,,0.53,weatherlink.com 1.10,2013-06-04 20:57:00,
2013-06-04 17:12:00,81.8,77.0,29.98,East,97,8.0,12.0,86,0.00,,,0.53,weatherlink.com 1.10,2013-06-04 21:12:00,
2013-06-04 17:26:00,81.5,77.0,29.98,East,99,10.0,13.0,86,0.00,,,0.53,weatherlink.com 1.10,2013-06-04 21:26:00,
2013-06-04 17:42:00,80.9,76.0,29.98,ESE,114,2.0,12.0,86,0.00,,,0.53,weatherlink.com 1.10,2013-06-04 21:42:00,
2013-06-04 17:57:00,80.3,76.0,29.98,East,99,4.0,11.0,86,0.00,,,0.53,weatherlink.com 1.10,2013-06-04 21:57:00,
2013-06-04 18:12:00,80.0,76.0,29.98,East,83,4.0,10.0,87,0.00,,,0.53,weatherlink.com 1.10,2013-06-04 22:12:00,
2013-06-04 18:27:00,79.8,76.0,29.98,East,83,3.0,7.0,88,0.00,,,0.53,weatherlink.com 1.10,2013-06-04 22:27:00,
2013-06-04 18:42:00,79.7,76.0,29.98,East,84,2.0,5.0,88,0.00,,,0.53,weatherlink.com 1.10,2013-06-04 22:42:00,
2013-06-04 18:57:00,79.5,76.0,29.98,East,101,3.0,6.0,89,0.00,,,0.53,weatherlink.com 1.10,2013-06-04 22:57:00,
2013-06-04 19:12:00,79.3,76.0,29.99,East,91,5.0,8.0,89,0.00,,,0.53,weatherlink.com 1.10,2013-06-04 23:12:00,
2013-06-04 19:27:00,79.1,76.0,29.99,ESE,104,4.0,6.0,89,0.00,,,0.53,weatherlink.com 1.10,2013-06-04 23:27:00,
2013-06-04 19:42:00,78.9,76.0,29.99,East,98,5.0,6.0,89,0.00,,,0.53,weatherlink.com 1.10,2013-06-04 23:42:00,
2013-06-04 19:57:00,78.8,76.0,29.99,East,89,3.0,6.0,90,0.00,,,0.53,weatherlink.com 1.10,2013-06-04 23:57:00,
2013-06-04 20:12:00,78.6,76.0,30.00,ENE,74,2.0,7.0,90,0.00,,,0.53,weatherlink.com 1.10,2013-06-05 00:12:00,
2013-06-04 20:27:00,78.4,75.0,30.00,ENE,72,4.0,6.0,90,0.00,,,0.53,weatherlink.com 1.10,2013-06-05 00:27:00,
2013-06-04 20:42:00,78.3,76.0,30.00,ENE,75,8.0,8.0,91,0.00,,,0.53,weatherlink.com 1.10,2013-06-05 00:42:00,
2013-06-04 20:57:00,78.3,76.0,30.00,ENE,68,5.0,7.0,91,0.00,,,0.53,weatherlink.com 1.10,2013-06-05 00:57:00,
2013-06-04 21:12:00,78.2,75.0,30.00,ENE,60,8.0,9.0,91,0.00,,,0.53,weatherlink.com 1.10,2013-06-05 01:12:00,
2013-06-04 21:27:00,78.1,76.0,30.00,ENE,59,4.0,7.0,92,0.00,,,0.53,weatherlink.com 1.10,2013-06-05 01:27:00,
2013-06-04 21:42:00,78.0,76.0,30.00,ENE,58,7.0,10.0,92,0.00,,,0.53,weatherlink.com 1.10,2013-06-05 01:42:00,
2013-06-04 21:57:00,77.9,76.0,30.00,ENE,68,6.0,11.0,92,0.00,,,0.53,weatherlink.com 1.10,2013-06-05 01:57:00,
2013-06-04 22:12:00,77.8,75.0,30.00,NE,48,7.0,10.0,92,0.00,,,0.53,weatherlink.com 1.10,2013-06-05 02:12:00,
2013-06-04 22:27:00,77.7,75.0,30.01,ENE,58,9.0,13.0,92,0.00,,,0.53,weatherlink.com 1.10,2013-06-05 02:27:00,
2013-06-04 22:42:00,77.8,75.0,30.01,East,79,6.0,13.0,92,0.00,,,0.53,weatherlink.com 1.10,2013-06-05 02:42:00,
2013-06-04 22:57:00,77.8,75.0,30.01,East,96,6.0,11.0,92,0.00,,,0.53,weatherlink.com 1.10,2013-06-05 02:57:00,
2013-06-04 23:12:00,77.8,75.0,30.02,ENE,58,3.0,10.0,92,0.00,,,0.53,weatherlink.com 1.10,2013-06-05 03:12:00,
2013-06-04 23:27:00,77.8,75.0,30.02,East,89,5.0,10.0,91,0.00,,,0.53,weatherlink.com 1.10,2013-06-05 03:27:00,
2013-06-04 23:42:00,77.8,75.0,30.02,East,79,6.0,8.0,92,0.00,,,0.53,weatherlink.com 1.10,2013-06-05 03:42:00,
2013-06-04 23:57:00,77.7,75.0,30.02,East,87,4.0,8.0,92,0.00,,,0.53,weatherlink.com 1.10,2013-06-05 03:57:00,